Aérodrome :







RETROUVEZ-NOUS SUR...

 
LOGIN :

S'inscrire | Disclaimer

   EN    FR    IT 

 









Légende :    VFR   VFR Marginal   IFR   IFR Intensif   IFR Très Intensif
Visi : 
Plafond : 
>= 8 km
>= 3000ft
5 à 8 km
1000 à 3000 ft
1500m à 5 km
500 à 1000 ft
800 à 1500m
200 à 500 ft
< 800m
< 200 ft
Symboles :   Orages  Brouillard  Fortes neiges  Fortes précipitations  Vent > 20 kt






- Altitude de l'aérodrome : 15 ft
- Code IATA : EIS


TUPJ - Terrance B. Lettsome International

DERNIER METAR :
  • 170000Z 08011KT 10SM FEW019 26/21 A3004 RMK Q1017 VIS16KM

METARs EXPIRÉS :
  • 162300Z 09009KT 10SM FEW019 26/21 A3002 RMK Q1016 VIS16KM
  • 162200Z 10009KT 10SM FEW018 26/20 A3001 RMK Q1016 VIS16KM

TAF TAF TUPJ
Valide du 16 à 18h jusqu'au 17 à 18h UTC


161700Z 1618/1718 09013KT 9999 SCT019
PROB30
TEMPO 1704/1718 SHRA



MET'MAP, la Météo Aéronautique d'un coup d'oeil ! - Copyright ORBIFLY Décembre 2007 - Disclaimer

ORBIFLY MET'MAP TEAM :

Programmation & Développement : Alexandra Zaïnal
Sur une idée originale de : Baudouin d'Aumeries
Assistance à la programmation : Marc-Olivier Méhu
Soutien technique & logistique : Manuel Goepfert

Contact : metmap@orbifly.com




SOURCES & CREDITS :

   NOAA